Terminal Aerodrome Forecast
Issued by NWS Cleveland, OH

Home | Current Version | Previous Version | Graphics & Text | Print | Product List | Glossary On
Versions: 1 2 3 4 5 6 7 8 9 10 11 12 13 14
000
FTUS41 KCLE 081500 AAB
TAFTOL
TAF AMD
KTOL 081531Z 0816/0912 24012G20KT 5SM -SHRA BR FEW012 SCT025 BKN050
      TEMPO 0816/0817 2SM -TSRA BR SCT008 OVC012CB
     FM081700 24012G20KT P6SM VCSH BKN030
     FM082000 27015G25KT P6SM SCT030 BKN040 OVC100
     FM090000 28006KT P6SM SCT030 BKN200=

USA.gov is the U.S. government's official web portal to all federal, state and local government web resources and services.